Red River Express — WDF9426 — position and weather

sailwx.info

Track history (hours):
 
Tides and Currents Weather Stations Pressure Air Temp Water Temp Dewpoint Dewpoint Depression Visibility Wind Speed Wind Dir Waves Ship Positions

Red River Express

Owner: Genesis Marine, LLC, Houston, TX. More information available from US FCC via Universal Licensing System and Coast Guard Vessel Documentation Center.

Last reported at 2018-Jun-17 13:59 UTC. Time now 2018-Jun-18 13:10 UTC.
Position N 29°56' W 093°04'.

Length 26 m.

MMSI: 367505040.

Date/timePositionNaut miles runAvg speedWind from/ knotsBaromVisibWave heightAir tempDewpointWater temp
2018-Jun-17 13:59N 29°56' W 093°04'2 5.2
2018-Jun-17 13:30N 29°56' W 093°07'2 4.2
2018-Jun-17 13:00N 29°56' W 093°09'2 4.8
2018-Jun-17 12:30N 29°58' W 093°11'2 4.7
2018-Jun-17 12:00N 29°60' W 093°13'2 4.4
2018-Jun-17 11:30N 30°02' W 093°14'2 4.2
2018-Jun-17 11:00N 30°03' W 093°16'2 4.5
2018-Jun-17 10:30N 30°05' W 093°17'1 2.1
2018-Jun-17 10:00N 30°06' W 093°18'1 1.2
2018-Jun-17 09:30N 30°06' W 093°18'0 0.1
2018-Jun-17 09:00N 30°06' W 093°18'0 0.1
2018-Jun-17 08:30N 30°06' W 093°18'0 0.0
2018-Jun-17 08:00N 30°06' W 093°18'0 0.0
2018-Jun-17 07:28N 30°06' W 093°18'0 0.0
2018-Jun-17 07:00N 30°06' W 093°18'0 0.0
2018-Jun-17 06:29N 30°06' W 093°18'0 0.0
2018-Jun-17 06:00N 30°06' W 093°18'0 0.0
2018-Jun-17 05:30N 30°06' W 093°18'0 0.0
2018-Jun-17 05:00N 30°06' W 093°18'0 0.1
2018-Jun-17 04:30N 30°06' W 093°18'0 0.0
2018-Jun-17 04:00N 30°06' W 093°18'0 0.0
2018-Jun-17 03:30N 30°06' W 093°18'0 0.0
2018-Jun-17 03:00N 30°06' W 093°18'0 0.0
2018-Jun-17 02:30N 30°06' W 093°18'0 0.0
2018-Jun-17 02:00N 30°06' W 093°18'0 0.0
2018-Jun-17 01:30N 30°06' W 093°18'0 0.0
2018-Jun-17 01:00N 30°06' W 093°18'0 0.1
2018-Jun-17 00:30N 30°06' W 093°18'0 0.0
2018-Jun-16 23:59N 30°06' W 093°18'0 0.0
2018-Jun-16 23:30N 30°06' W 093°18'0 0.1
2018-Jun-16 23:00N 30°06' W 093°18'0 0.0
2018-Jun-16 22:30N 30°06' W 093°18'0 0.0
2018-Jun-16 22:00N 30°06' W 093°18'0 0.0
2018-Jun-16 21:30N 30°06' W 093°18'0 0.0
2018-Jun-16 21:00N 30°06' W 093°18'0 0.0
2018-Jun-16 20:30N 30°06' W 093°18'0 0.0
2018-Jun-16 20:00N 30°06' W 093°18'0 0.0
2018-Jun-16 19:30N 30°06' W 093°18'0 0.0
2018-Jun-16 19:00N 30°06' W 093°18'0 0.0
2018-Jun-16 18:30N 30°06' W 093°18'0 0.0
2018-Jun-16 17:59N 30°06' W 093°18'0 0.0
2018-Jun-16 17:30N 30°06' W 093°18'0 0.1
2018-Jun-16 17:00N 30°06' W 093°18'0 0.1
2018-Jun-16 16:30N 30°06' W 093°18'1 1.6
2018-Jun-16 16:00N 30°06' W 093°19'2 4.1
2018-Jun-16 15:30N 30°04' W 093°21'2 4.0
2018-Jun-16 15:00N 30°04' W 093°23'2 4.3
2018-Jun-16 14:30N 30°04' W 093°25'3 5.3
2018-Jun-16 14:00N 30°04' W 093°28'3 5.2
2018-Jun-16 13:30N 30°04' W 093°31'2 3.2
2018-Jun-16 12:54N 30°04' W 093°34'7 5.8
2018-Jun-16 11:41N 30°04' W 093°42'1 5.8
2018-Jun-16 11:28N 30°03' W 093°43'3 5.9
2018-Jun-16 11:00N 30°01' W 093°45'3 6.4
2018-Jun-16 10:30N 29°59' W 093°48'3 5.9
2018-Jun-16 10:00N 29°58' W 093°51'2 5.0
2018-Jun-16 09:30N 29°56' W 093°52'3 6.4
2018-Jun-16 08:59N 29°53' W 093°55'3 5.3
2018-Jun-16 08:30N 29°51' W 093°57'2 4.9
2018-Jun-16 08:00N 29°49' W 093°58'3 5.8
2018-Jun-16 07:30N 29°47' W 094°01'3 6.6
2018-Jun-16 07:00N 29°45' W 094°04'3 6.6
2018-Jun-16 06:30N 29°43' W 094°07'3 5.3
2018-Jun-16 06:00N 29°42' W 094°09'3 6.0
2018-Jun-16 05:30N 29°41' W 094°13'2 4.2
2018-Jun-16 04:58N 29°40' W 094°15'2 5.0
2018-Jun-16 04:29N 29°38' W 094°17'0 0.7
2018-Jun-16 04:00N 29°38' W 094°18'2 4.2
2018-Jun-16 03:29N 29°37' W 094°20'2 4.3
2018-Jun-16 02:59N 29°36' W 094°22'2 4.0
2018-Jun-16 02:30N 29°36' W 094°24'2 4.1
2018-Jun-16 01:59N 29°34' W 094°25'23 5.0
2018-Jun-15 21:22N 29°22' W 094°48'3 7.4
2018-Jun-15 20:58N 29°25' W 094°49'14 7.2
2018-Jun-15 19:04N 29°37' W 094°57'1 7.3
2018-Jun-15 19:00N 29°37' W 094°58'4 7.6
2018-Jun-15 18:30N 29°41' W 094°59'  
2018-Jun-09 02:58N 29°46' W 095°06'2 4.9
2018-Jun-09 02:29N 29°47' W 095°04'0 0.1
2018-Jun-09 01:50N 29°47' W 095°04'  
Track history (hours):
 
Tides and Currents Weather Stations Pressure Air Temp Water Temp Dewpoint Dewpoint Depression Visibility Wind Speed Wind Dir Waves Ship Positions

Red River Express

Owner: Genesis Marine, LLC, Houston, TX. More information available from US FCC via Universal Licensing System and Coast Guard Vessel Documentation Center.

Last reported at 2018-Jun-17 13:59 UTC. Time now 2018-Jun-18 13:10 UTC.
Position N 29°56' W 093°04'.

Length 26 m.

MMSI: 367505040.

Date/timePositionNaut miles runAvg speedWind from/ knotsBaromVisibWave heightAir tempDewpointWater temp
2018-Jun-17 13:59N 29°56' W 093°04'2 5.2
2018-Jun-17 13:30N 29°56' W 093°07'2 4.2
2018-Jun-17 13:00N 29°56' W 093°09'2 4.8
2018-Jun-17 12:30N 29°58' W 093°11'2 4.7
2018-Jun-17 12:00N 29°60' W 093°13'2 4.4
2018-Jun-17 11:30N 30°02' W 093°14'2 4.2
2018-Jun-17 11:00N 30°03' W 093°16'2 4.5
2018-Jun-17 10:30N 30°05' W 093°17'1 2.1
2018-Jun-17 10:00N 30°06' W 093°18'1 1.2
2018-Jun-17 09:30N 30°06' W 093°18'0 0.1
2018-Jun-17 09:00N 30°06' W 093°18'0 0.1
2018-Jun-17 08:30N 30°06' W 093°18'0 0.0
2018-Jun-17 08:00N 30°06' W 093°18'0 0.0
2018-Jun-17 07:28N 30°06' W 093°18'0 0.0
2018-Jun-17 07:00N 30°06' W 093°18'0 0.0
2018-Jun-17 06:29N 30°06' W 093°18'0 0.0
2018-Jun-17 06:00N 30°06' W 093°18'0 0.0
2018-Jun-17 05:30N 30°06' W 093°18'0 0.0
2018-Jun-17 05:00N 30°06' W 093°18'0 0.1
2018-Jun-17 04:30N 30°06' W 093°18'0 0.0
2018-Jun-17 04:00N 30°06' W 093°18'0 0.0
2018-Jun-17 03:30N 30°06' W 093°18'0 0.0
2018-Jun-17 03:00N 30°06' W 093°18'0 0.0
2018-Jun-17 02:30N 30°06' W 093°18'0 0.0
2018-Jun-17 02:00N 30°06' W 093°18'0 0.0
2018-Jun-17 01:30N 30°06' W 093°18'0 0.0
2018-Jun-17 01:00N 30°06' W 093°18'0 0.1
2018-Jun-17 00:30N 30°06' W 093°18'0 0.0
2018-Jun-16 23:59N 30°06' W 093°18'0 0.0
2018-Jun-16 23:30N 30°06' W 093°18'0 0.1
2018-Jun-16 23:00N 30°06' W 093°18'0 0.0
2018-Jun-16 22:30N 30°06' W 093°18'0 0.0
2018-Jun-16 22:00N 30°06' W 093°18'0 0.0
2018-Jun-16 21:30N 30°06' W 093°18'0 0.0
2018-Jun-16 21:00N 30°06' W 093°18'0 0.0
2018-Jun-16 20:30N 30°06' W 093°18'0 0.0
2018-Jun-16 20:00N 30°06' W 093°18'0 0.0
2018-Jun-16 19:30N 30°06' W 093°18'0 0.0
2018-Jun-16 19:00N 30°06' W 093°18'0 0.0
2018-Jun-16 18:30N 30°06' W 093°18'0 0.0
2018-Jun-16 17:59N 30°06' W 093°18'0 0.0
2018-Jun-16 17:30N 30°06' W 093°18'0 0.1
2018-Jun-16 17:00N 30°06' W 093°18'0 0.1
2018-Jun-16 16:30N 30°06' W 093°18'1 1.6
2018-Jun-16 16:00N 30°06' W 093°19'2 4.1
2018-Jun-16 15:30N 30°04' W 093°21'2 4.0
2018-Jun-16 15:00N 30°04' W 093°23'2 4.3
2018-Jun-16 14:30N 30°04' W 093°25'3 5.3
2018-Jun-16 14:00N 30°04' W 093°28'3 5.2
2018-Jun-16 13:30N 30°04' W 093°31'2 3.2
2018-Jun-16 12:54N 30°04' W 093°34'7 5.8
2018-Jun-16 11:41N 30°04' W 093°42'1 5.8
2018-Jun-16 11:28N 30°03' W 093°43'3 5.9
2018-Jun-16 11:00N 30°01' W 093°45'3 6.4
2018-Jun-16 10:30N 29°59' W 093°48'3 5.9
2018-Jun-16 10:00N 29°58' W 093°51'2 5.0
2018-Jun-16 09:30N 29°56' W 093°52'3 6.4
2018-Jun-16 08:59N 29°53' W 093°55'3 5.3
2018-Jun-16 08:30N 29°51' W 093°57'2 4.9
2018-Jun-16 08:00N 29°49' W 093°58'3 5.8
2018-Jun-16 07:30N 29°47' W 094°01'3 6.6
2018-Jun-16 07:00N 29°45' W 094°04'3 6.6
2018-Jun-16 06:30N 29°43' W 094°07'3 5.3
2018-Jun-16 06:00N 29°42' W 094°09'3 6.0
2018-Jun-16 05:30N 29°41' W 094°13'2 4.2
2018-Jun-16 04:58N 29°40' W 094°15'2 5.0
2018-Jun-16 04:29N 29°38' W 094°17'0 0.7
2018-Jun-16 04:00N 29°38' W 094°18'2 4.2
2018-Jun-16 03:29N 29°37' W 094°20'2 4.3
2018-Jun-16 02:59N 29°36' W 094°22'2 4.0
2018-Jun-16 02:30N 29°36' W 094°24'2 4.1
2018-Jun-16 01:59N 29°34' W 094°25'23 5.0
2018-Jun-15 21:22N 29°22' W 094°48'3 7.4
2018-Jun-15 20:58N 29°25' W 094°49'14 7.2
2018-Jun-15 19:04N 29°37' W 094°57'1 7.3
2018-Jun-15 19:00N 29°37' W 094°58'4 7.6
2018-Jun-15 18:30N 29°41' W 094°59'  
2018-Jun-09 02:58N 29°46' W 095°06'2 4.9
2018-Jun-09 02:29N 29°47' W 095°04'0 0.1
2018-Jun-09 01:50N 29°47' W 095°04'  

Dump ship's entire track history